sensor_id;sensor_type;location;lat;lon;timestamp;P1;durP1;ratioP1;P2;durP2;ratioP2
21430;SDS011;10876;49.038;10.608;2023-07-29T00:01:23;8.25;;;4.88;;
21430;SDS011;10876;49.038;10.608;2023-07-29T00:04:51;6.22;;;4.45;;
21430;SDS011;10876;49.038;10.608;2023-07-29T00:08:17;6.72;;;4.85;;
21430;SDS011;10876;49.038;10.608;2023-07-29T00:11:52;9.40;;;5.00;;
21430;SDS011;10876;49.038;10.608;2023-07-29T00:15:23;8.02;;;5.10;;
21430;SDS011;10876;49.038;10.608;2023-07-29T00:18:51;7.20;;;4.57;;
21430;SDS011;10876;49.038;10.608;2023-07-29T00:22:22;5.55;;;4.53;;
21430;SDS011;10876;49.038;10.608;2023-07-29T00:25:49;7.57;;;4.95;;
21430;SDS011;10876;49.038;10.608;2023-07-29T00:29:23;7.55;;;4.90;;
21430;SDS011;10876;49.038;10.608;2023-07-29T00:32:51;8.02;;;4.30;;
21430;SDS011;10876;49.038;10.608;2023-07-29T00:36:19;8.27;;;4.30;;
21430;SDS011;10876;49.038;10.608;2023-07-29T00:39:46;7.07;;;4.35;;
21430;SDS011;10876;49.038;10.608;2023-07-29T00:43:16;6.72;;;4.30;;
21430;SDS011;10876;49.038;10.608;2023-07-29T00:46:49;5.88;;;4.05;;
21430;SDS011;10876;49.038;10.608;2023-07-29T00:50:17;7.82;;;4.47;;
21430;SDS011;10876;49.038;10.608;2023-07-29T00:53:53;7.05;;;4.15;;
21430;SDS011;10876;49.038;10.608;2023-07-29T00:57:28;6.97;;;4.07;;
21430;SDS011;10876;49.038;10.608;2023-07-29T01:00:56;4.50;;;3.70;;
21430;SDS011;10876;49.038;10.608;2023-07-29T01:04:27;5.65;;;3.92;;
21430;SDS011;10876;49.038;10.608;2023-07-29T01:08:00;5.47;;;3.50;;
21430;SDS011;10876;49.038;10.608;2023-07-29T01:11:41;5.63;;;4.13;;
21430;SDS011;10876;49.038;10.608;2023-07-29T01:15:17;5.35;;;4.28;;
21430;SDS011;10876;49.038;10.608;2023-07-29T01:18:54;5.00;;;3.63;;
21430;SDS011;10876;49.038;10.608;2023-07-29T01:22:30;6.38;;;3.85;;
21430;SDS011;10876;49.038;10.608;2023-07-29T01:26:01;6.72;;;3.80;;
21430;SDS011;10876;49.038;10.608;2023-07-29T01:29:31;6.15;;;4.45;;
21430;SDS011;10876;49.038;10.608;2023-07-29T01:33:09;5.75;;;3.72;;
21430;SDS011;10876;49.038;10.608;2023-07-29T01:36:45;6.18;;;4.22;;
21430;SDS011;10876;49.038;10.608;2023-07-29T01:40:19;5.28;;;4.07;;
21430;SDS011;10876;49.038;10.608;2023-07-29T01:43:48;7.07;;;4.13;;
21430;SDS011;10876;49.038;10.608;2023-07-29T01:47:14;5.93;;;4.20;;
21430;SDS011;10876;49.038;10.608;2023-07-29T01:50:48;6.03;;;4.53;;
21430;SDS011;10876;49.038;10.608;2023-07-29T01:54:18;8.25;;;4.50;;
21430;SDS011;10876;49.038;10.608;2023-07-29T01:58:06;6.22;;;4.15;;
21430;SDS011;10876;49.038;10.608;2023-07-29T02:01:35;5.45;;;4.05;;
21430;SDS011;10876;49.038;10.608;2023-07-29T02:05:01;5.18;;;4.10;;
21430;SDS011;10876;49.038;10.608;2023-07-29T02:08:35;6.32;;;4.18;;
21430;SDS011;10876;49.038;10.608;2023-07-29T02:12:08;6.70;;;4.13;;
21430;SDS011;10876;49.038;10.608;2023-07-29T02:15:37;6.15;;;4.20;;
21430;SDS011;10876;49.038;10.608;2023-07-29T02:19:06;5.78;;;4.00;;
21430;SDS011;10876;49.038;10.608;2023-07-29T02:22:35;7.85;;;3.90;;
21430;SDS011;10876;49.038;10.608;2023-07-29T02:26:11;7.07;;;4.15;;
21430;SDS011;10876;49.038;10.608;2023-07-29T02:29:56;6.35;;;4.25;;
21430;SDS011;10876;49.038;10.608;2023-07-29T02:33:42;9.07;;;4.53;;
21430;SDS011;10876;49.038;10.608;2023-07-29T02:37:13;6.72;;;4.22;;
21430;SDS011;10876;49.038;10.608;2023-07-29T02:40:41;8.10;;;4.47;;
21430;SDS011;10876;49.038;10.608;2023-07-29T02:44:13;8.27;;;4.50;;
21430;SDS011;10876;49.038;10.608;2023-07-29T02:47:42;6.93;;;4.20;;
21430;SDS011;10876;49.038;10.608;2023-07-29T02:51:17;7.75;;;4.43;;
21430;SDS011;10876;49.038;10.608;2023-07-29T02:54:47;6.97;;;4.82;;
21430;SDS011;10876;49.038;10.608;2023-07-29T02:58:18;8.13;;;4.40;;
21430;SDS011;10876;49.038;10.608;2023-07-29T03:01:48;9.77;;;4.50;;
21430;SDS011;10876;49.038;10.608;2023-07-29T03:05:15;8.15;;;4.38;;
21430;SDS011;10876;49.038;10.608;2023-07-29T03:09:05;8.80;;;4.93;;
21430;SDS011;10876;49.038;10.608;2023-07-29T03:12:33;5.75;;;3.80;;
21430;SDS011;10876;49.038;10.608;2023-07-29T03:16:11;7.75;;;4.35;;
21430;SDS011;10876;49.038;10.608;2023-07-29T03:19:41;6.13;;;3.78;;
21430;SDS011;10876;49.038;10.608;2023-07-29T03:23:22;4.75;;;3.47;;
21430;SDS011;10876;49.038;10.608;2023-07-29T03:26:51;8.32;;;3.92;;
21430;SDS011;10876;49.038;10.608;2023-07-29T03:30:19;6.88;;;3.88;;
21430;SDS011;10876;49.038;10.608;2023-07-29T03:33:51;5.78;;;3.50;;
21430;SDS011;10876;49.038;10.608;2023-07-29T03:37:26;5.43;;;3.80;;
21430;SDS011;10876;49.038;10.608;2023-07-29T03:40:58;6.85;;;3.15;;
21430;SDS011;10876;49.038;10.608;2023-07-29T03:44:26;5.43;;;3.45;;
21430;SDS011;10876;49.038;10.608;2023-07-29T03:48:02;5.15;;;3.50;;
21430;SDS011;10876;49.038;10.608;2023-07-29T03:51:30;4.55;;;3.50;;
21430;SDS011;10876;49.038;10.608;2023-07-29T03:54:59;3.40;;;2.95;;
21430;SDS011;10876;49.038;10.608;2023-07-29T03:58:29;3.65;;;2.88;;
21430;SDS011;10876;49.038;10.608;2023-07-29T04:01:59;6.95;;;3.08;;
21430;SDS011;10876;49.038;10.608;2023-07-29T04:05:31;4.43;;;2.75;;
21430;SDS011;10876;49.038;10.608;2023-07-29T04:09:03;5.15;;;3.25;;
21430;SDS011;10876;49.038;10.608;2023-07-29T04:12:31;3.60;;;2.75;;
21430;SDS011;10876;49.038;10.608;2023-07-29T04:16:00;4.00;;;3.13;;
21430;SDS011;10876;49.038;10.608;2023-07-29T04:19:30;6.45;;;3.47;;
21430;SDS011;10876;49.038;10.608;2023-07-29T04:22:59;4.45;;;3.28;;
21430;SDS011;10876;49.038;10.608;2023-07-29T04:26:40;6.95;;;2.97;;
21430;SDS011;10876;49.038;10.608;2023-07-29T04:30:12;4.40;;;3.22;;
21430;SDS011;10876;49.038;10.608;2023-07-29T04:33:38;4.88;;;3.60;;
21430;SDS011;10876;49.038;10.608;2023-07-29T04:40:56;7.00;;;3.97;;
21430;SDS011;10876;49.038;10.608;2023-07-29T04:44:25;9.48;;;4.15;;
21430;SDS011;10876;49.038;10.608;2023-07-29T04:47:54;6.90;;;4.32;;
21430;SDS011;10876;49.038;10.608;2023-07-29T04:51:21;8.38;;;4.40;;
21430;SDS011;10876;49.038;10.608;2023-07-29T04:54:51;6.82;;;4.65;;
21430;SDS011;10876;49.038;10.608;2023-07-29T04:58:21;7.80;;;4.90;;
21430;SDS011;10876;49.038;10.608;2023-07-29T05:01:50;9.35;;;5.47;;
21430;SDS011;10876;49.038;10.608;2023-07-29T05:05:19;9.77;;;5.63;;
21430;SDS011;10876;49.038;10.608;2023-07-29T05:08:49;9.27;;;6.22;;
21430;SDS011;10876;49.038;10.608;2023-07-29T05:12:21;11.75;;;6.70;;
21430;SDS011;10876;49.038;10.608;2023-07-29T05:15:50;10.48;;;6.78;;
21430;SDS011;10876;49.038;10.608;2023-07-29T05:19:19;11.48;;;7.03;;
21430;SDS011;10876;49.038;10.608;2023-07-29T05:22:45;12.70;;;7.78;;
21430;SDS011;10876;49.038;10.608;2023-07-29T05:26:14;11.68;;;8.02;;
21430;SDS011;10876;49.038;10.608;2023-07-29T05:29:45;13.32;;;7.75;;
21430;SDS011;10876;49.038;10.608;2023-07-29T05:33:11;14.45;;;7.55;;
21430;SDS011;10876;49.038;10.608;2023-07-29T05:36:37;11.18;;;7.43;;
21430;SDS011;10876;49.038;10.608;2023-07-29T05:40:08;14.63;;;7.63;;
21430;SDS011;10876;49.038;10.608;2023-07-29T05:43:40;11.75;;;7.30;;
21430;SDS011;10876;49.038;10.608;2023-07-29T05:47:08;12.68;;;7.43;;
21430;SDS011;10876;49.038;10.608;2023-07-29T05:50:38;11.73;;;7.30;;
21430;SDS011;10876;49.038;10.608;2023-07-29T05:54:04;16.35;;;7.85;;
21430;SDS011;10876;49.038;10.608;2023-07-29T05:57:30;11.27;;;7.57;;
21430;SDS011;10876;49.038;10.608;2023-07-29T06:01:00;15.43;;;8.18;;
21430;SDS011;10876;49.038;10.608;2023-07-29T06:04:27;12.23;;;7.43;;
21430;SDS011;10876;49.038;10.608;2023-07-29T06:07:54;13.63;;;7.72;;
21430;SDS011;10876;49.038;10.608;2023-07-29T06:11:24;14.75;;;7.70;;
21430;SDS011;10876;49.038;10.608;2023-07-29T06:15:04;14.18;;;8.38;;
21430;SDS011;10876;49.038;10.608;2023-07-29T06:18:32;12.90;;;8.00;;
21430;SDS011;10876;49.038;10.608;2023-07-29T06:22:06;11.73;;;7.70;;
21430;SDS011;10876;49.038;10.608;2023-07-29T06:25:31;14.13;;;7.85;;
21430;SDS011;10876;49.038;10.608;2023-07-29T06:29:15;14.10;;;7.65;;
21430;SDS011;10876;49.038;10.608;2023-07-29T06:32:45;19.58;;;7.65;;
21430;SDS011;10876;49.038;10.608;2023-07-29T06:36:17;14.40;;;7.25;;
21430;SDS011;10876;49.038;10.608;2023-07-29T06:43:37;10.65;;;7.32;;
21430;SDS011;10876;49.038;10.608;2023-07-29T06:47:07;13.20;;;7.75;;
21430;SDS011;10876;49.038;10.608;2023-07-29T06:50:41;13.23;;;7.95;;
21430;SDS011;10876;49.038;10.608;2023-07-29T06:54:09;15.52;;;8.27;;
21430;SDS011;10876;49.038;10.608;2023-07-29T06:57:35;14.65;;;8.43;;
21430;SDS011;10876;49.038;10.608;2023-07-29T07:01:02;13.75;;;7.75;;
21430;SDS011;10876;49.038;10.608;2023-07-29T07:04:32;13.98;;;7.45;;
21430;SDS011;10876;49.038;10.608;2023-07-29T07:08:04;12.00;;;7.53;;
21430;SDS011;10876;49.038;10.608;2023-07-29T07:11:32;12.40;;;8.52;;
21430;SDS011;10876;49.038;10.608;2023-07-29T07:15:09;12.90;;;7.65;;
21430;SDS011;10876;49.038;10.608;2023-07-29T07:18:39;10.18;;;7.00;;
21430;SDS011;10876;49.038;10.608;2023-07-29T07:22:14;14.77;;;6.05;;
21430;SDS011;10876;49.038;10.608;2023-07-29T07:25:44;8.40;;;6.03;;
21430;SDS011;10876;49.038;10.608;2023-07-29T07:29:09;13.90;;;7.05;;
21430;SDS011;10876;49.038;10.608;2023-07-29T07:32:36;9.38;;;5.53;;
21430;SDS011;10876;49.038;10.608;2023-07-29T07:36:09;6.90;;;5.13;;
21430;SDS011;10876;49.038;10.608;2023-07-29T07:44:30;9.18;;;4.82;;
21430;SDS011;10876;49.038;10.608;2023-07-29T07:48:25;7.53;;;4.80;;
21430;SDS011;10876;49.038;10.608;2023-07-29T07:51:56;7.97;;;5.13;;
21430;SDS011;10876;49.038;10.608;2023-07-29T08:01:02;8.60;;;6.18;;
21430;SDS011;10876;49.038;10.608;2023-07-29T08:04:28;8.68;;;5.88;;
21430;SDS011;10876;49.038;10.608;2023-07-29T08:07:54;11.43;;;5.80;;
21430;SDS011;10876;49.038;10.608;2023-07-29T08:11:20;7.72;;;5.50;;
21430;SDS011;10876;49.038;10.608;2023-07-29T08:14:45;8.77;;;6.05;;
21430;SDS011;10876;49.038;10.608;2023-07-29T08:18:12;9.23;;;5.65;;
21430;SDS011;10876;49.038;10.608;2023-07-29T08:21:37;8.02;;;5.35;;
21430;SDS011;10876;49.038;10.608;2023-07-29T08:25:04;8.18;;;5.80;;
21430;SDS011;10876;49.038;10.608;2023-07-29T08:28:31;7.10;;;5.22;;
21430;SDS011;10876;49.038;10.608;2023-07-29T08:31:56;6.53;;;4.82;;
21430;SDS011;10876;49.038;10.608;2023-07-29T08:35:22;6.78;;;4.18;;
21430;SDS011;10876;49.038;10.608;2023-07-29T08:38:47;8.13;;;4.57;;
21430;SDS011;10876;49.038;10.608;2023-07-29T08:42:14;6.38;;;3.53;;
21430;SDS011;10876;49.038;10.608;2023-07-29T08:45:42;8.40;;;3.50;;
21430;SDS011;10876;49.038;10.608;2023-07-29T08:49:10;7.65;;;3.00;;
21430;SDS011;10876;49.038;10.608;2023-07-29T08:52:43;5.72;;;2.97;;
21430;SDS011;10876;49.038;10.608;2023-07-29T08:56:09;5.53;;;2.83;;
21430;SDS011;10876;49.038;10.608;2023-07-29T08:59:36;7.38;;;3.20;;
21430;SDS011;10876;49.038;10.608;2023-07-29T09:03:02;5.03;;;2.85;;
21430;SDS011;10876;49.038;10.608;2023-07-29T09:06:27;6.70;;;3.45;;
21430;SDS011;10876;49.038;10.608;2023-07-29T09:09:54;4.63;;;2.97;;
21430;SDS011;10876;49.038;10.608;2023-07-29T09:13:19;5.68;;;2.95;;
21430;SDS011;10876;49.038;10.608;2023-07-29T09:16:47;3.45;;;2.60;;
21430;SDS011;10876;49.038;10.608;2023-07-29T09:20:12;3.58;;;2.67;;
21430;SDS011;10876;49.038;10.608;2023-07-29T09:23:38;5.85;;;2.20;;
21430;SDS011;10876;49.038;10.608;2023-07-29T09:27:04;2.60;;;2.17;;
21430;SDS011;10876;49.038;10.608;2023-07-29T09:30:34;3.22;;;2.40;;
21430;SDS011;10876;49.038;10.608;2023-07-29T09:34:02;4.28;;;2.40;;
21430;SDS011;10876;49.038;10.608;2023-07-29T09:37:27;3.13;;;2.22;;
21430;SDS011;10876;49.038;10.608;2023-07-29T09:40:54;3.42;;;2.10;;
21430;SDS011;10876;49.038;10.608;2023-07-29T09:44:20;2.83;;;1.70;;
21430;SDS011;10876;49.038;10.608;2023-07-29T09:47:46;2.50;;;1.40;;
21430;SDS011;10876;49.038;10.608;2023-07-29T09:51:15;3.63;;;1.30;;
21430;SDS011;10876;49.038;10.608;2023-07-29T09:54:42;2.03;;;1.30;;
21430;SDS011;10876;49.038;10.608;2023-07-29T09:58:12;2.00;;;1.20;;
21430;SDS011;10876;49.038;10.608;2023-07-29T10:01:39;1.55;;;1.02;;
21430;SDS011;10876;49.038;10.608;2023-07-29T10:05:09;1.98;;;1.58;;
21430;SDS011;10876;49.038;10.608;2023-07-29T10:08:36;2.45;;;1.25;;
21430;SDS011;10876;49.038;10.608;2023-07-29T10:12:03;2.17;;;1.20;;
21430;SDS011;10876;49.038;10.608;2023-07-29T10:15:29;2.60;;;0.80;;
21430;SDS011;10876;49.038;10.608;2023-07-29T10:18:56;1.17;;;0.70;;
21430;SDS011;10876;49.038;10.608;2023-07-29T10:22:22;1.65;;;0.80;;
21430;SDS011;10876;49.038;10.608;2023-07-29T10:25:54;0.98;;;0.82;;
21430;SDS011;10876;49.038;10.608;2023-07-29T10:29:22;1.00;;;0.73;;
21430;SDS011;10876;49.038;10.608;2023-07-29T10:32:50;1.00;;;0.90;;
21430;SDS011;10876;49.038;10.608;2023-07-29T10:36:17;1.77;;;1.15;;
21430;SDS011;10876;49.038;10.608;2023-07-29T10:39:51;1.10;;;0.90;;
21430;SDS011;10876;49.038;10.608;2023-07-29T10:43:25;1.40;;;0.90;;
21430;SDS011;10876;49.038;10.608;2023-07-29T10:47:11;2.40;;;1.15;;
21430;SDS011;10876;49.038;10.608;2023-07-29T10:50:37;1.55;;;1.02;;
21430;SDS011;10876;49.038;10.608;2023-07-29T10:54:10;1.15;;;0.80;;
21430;SDS011;10876;49.038;10.608;2023-07-29T10:57:50;1.20;;;1.08;;
21430;SDS011;10876;49.038;10.608;2023-07-29T11:01:25;1.33;;;1.00;;
21430;SDS011;10876;49.038;10.608;2023-07-29T11:04:55;0.93;;;0.80;;
21430;SDS011;10876;49.038;10.608;2023-07-29T11:08:22;1.00;;;0.90;;
21430;SDS011;10876;49.038;10.608;2023-07-29T11:15:57;1.08;;;0.98;;
21430;SDS011;10876;49.038;10.608;2023-07-29T11:19:23;1.58;;;1.08;;
21430;SDS011;10876;49.038;10.608;2023-07-29T11:22:49;1.42;;;1.05;;
21430;SDS011;10876;49.038;10.608;2023-07-29T11:26:15;1.70;;;1.30;;
21430;SDS011;10876;49.038;10.608;2023-07-29T11:29:41;1.13;;;0.88;;
21430;SDS011;10876;49.038;10.608;2023-07-29T11:33:11;1.65;;;1.50;;
21430;SDS011;10876;49.038;10.608;2023-07-29T11:36:45;2.15;;;1.10;;
21430;SDS011;10876;49.038;10.608;2023-07-29T11:40:14;1.80;;;1.27;;
21430;SDS011;10876;49.038;10.608;2023-07-29T11:43:48;1.60;;;1.40;;
21430;SDS011;10876;49.038;10.608;2023-07-29T11:47:13;1.30;;;1.10;;
21430;SDS011;10876;49.038;10.608;2023-07-29T11:50:42;2.92;;;1.30;;
21430;SDS011;10876;49.038;10.608;2023-07-29T11:54:08;2.35;;;0.98;;
21430;SDS011;10876;49.038;10.608;2023-07-29T11:57:35;2.55;;;1.67;;
21430;SDS011;10876;49.038;10.608;2023-07-29T12:01:01;1.92;;;1.58;;
21430;SDS011;10876;49.038;10.608;2023-07-29T12:04:33;1.60;;;1.20;;
21430;SDS011;10876;49.038;10.608;2023-07-29T12:07:59;4.43;;;1.50;;
21430;SDS011;10876;49.038;10.608;2023-07-29T12:11:25;1.40;;;1.30;;
21430;SDS011;10876;49.038;10.608;2023-07-29T12:14:50;1.70;;;1.20;;
21430;SDS011;10876;49.038;10.608;2023-07-29T12:18:16;1.00;;;0.90;;
21430;SDS011;10876;49.038;10.608;2023-07-29T12:21:45;2.15;;;1.10;;
21430;SDS011;10876;49.038;10.608;2023-07-29T12:25:20;3.00;;;1.13;;
21430;SDS011;10876;49.038;10.608;2023-07-29T12:28:45;2.15;;;1.20;;
21430;SDS011;10876;49.038;10.608;2023-07-29T12:32:13;0.80;;;0.80;;
21430;SDS011;10876;49.038;10.608;2023-07-29T12:35:55;1.25;;;0.98;;
21430;SDS011;10876;49.038;10.608;2023-07-29T12:39:23;1.95;;;0.90;;
21430;SDS011;10876;49.038;10.608;2023-07-29T12:42:49;0.68;;;0.57;;
21430;SDS011;10876;49.038;10.608;2023-07-29T12:46:14;1.73;;;0.90;;
21430;SDS011;10876;49.038;10.608;2023-07-29T12:49:39;0.85;;;0.82;;
21430;SDS011;10876;49.038;10.608;2023-07-29T12:53:07;1.00;;;0.80;;
21430;SDS011;10876;49.038;10.608;2023-07-29T12:56:33;1.80;;;1.10;;
21430;SDS011;10876;49.038;10.608;2023-07-29T12:59:58;0.90;;;0.90;;
21430;SDS011;10876;49.038;10.608;2023-07-29T13:03:23;2.40;;;1.13;;
21430;SDS011;10876;49.038;10.608;2023-07-29T13:06:48;2.17;;;1.00;;
21430;SDS011;10876;49.038;10.608;2023-07-29T13:10:15;1.17;;;1.00;;
21430;SDS011;10876;49.038;10.608;2023-07-29T13:13:41;1.33;;;1.10;;
21430;SDS011;10876;49.038;10.608;2023-07-29T13:17:06;1.23;;;0.80;;
21430;SDS011;10876;49.038;10.608;2023-07-29T13:20:31;4.82;;;1.85;;
21430;SDS011;10876;49.038;10.608;2023-07-29T13:23:56;1.13;;;0.93;;
21430;SDS011;10876;49.038;10.608;2023-07-29T13:27:23;1.48;;;1.00;;
21430;SDS011;10876;49.038;10.608;2023-07-29T13:30:49;1.13;;;0.90;;
21430;SDS011;10876;49.038;10.608;2023-07-29T13:34:14;4.20;;;1.13;;
21430;SDS011;10876;49.038;10.608;2023-07-29T13:37:39;1.35;;;1.05;;
21430;SDS011;10876;49.038;10.608;2023-07-29T13:41:04;2.75;;;1.40;;
21430;SDS011;10876;49.038;10.608;2023-07-29T13:44:31;2.25;;;1.00;;
21430;SDS011;10876;49.038;10.608;2023-07-29T13:47:57;1.35;;;1.10;;
21430;SDS011;10876;49.038;10.608;2023-07-29T13:51:22;1.63;;;1.20;;
21430;SDS011;10876;49.038;10.608;2023-07-29T13:54:48;2.40;;;1.45;;
21430;SDS011;10876;49.038;10.608;2023-07-29T13:58:13;2.92;;;1.20;;
21430;SDS011;10876;49.038;10.608;2023-07-29T14:01:40;1.25;;;1.10;;
21430;SDS011;10876;49.038;10.608;2023-07-29T14:05:05;1.85;;;1.20;;
21430;SDS011;10876;49.038;10.608;2023-07-29T14:08:30;2.15;;;1.10;;
21430;SDS011;10876;49.038;10.608;2023-07-29T14:11:56;1.35;;;1.00;;
21430;SDS011;10876;49.038;10.608;2023-07-29T14:15:21;2.55;;;1.20;;
21430;SDS011;10876;49.038;10.608;2023-07-29T14:18:48;1.38;;;1.00;;
21430;SDS011;10876;49.038;10.608;2023-07-29T14:22:13;1.58;;;1.20;;
21430;SDS011;10876;49.038;10.608;2023-07-29T14:25:38;1.92;;;1.10;;
21430;SDS011;10876;49.038;10.608;2023-07-29T14:29:04;1.60;;;1.50;;
21430;SDS011;10876;49.038;10.608;2023-07-29T14:32:29;1.98;;;1.10;;
21430;SDS011;10876;49.038;10.608;2023-07-29T14:35:56;1.42;;;1.30;;
21430;SDS011;10876;49.038;10.608;2023-07-29T14:39:21;1.98;;;1.10;;
21430;SDS011;10876;49.038;10.608;2023-07-29T14:42:46;1.55;;;1.10;;
21430;SDS011;10876;49.038;10.608;2023-07-29T14:46:11;1.25;;;1.15;;
21430;SDS011;10876;49.038;10.608;2023-07-29T14:49:36;1.35;;;1.05;;
21430;SDS011;10876;49.038;10.608;2023-07-29T14:53:03;2.03;;;1.25;;
21430;SDS011;10876;49.038;10.608;2023-07-29T14:56:28;1.70;;;1.20;;
21430;SDS011;10876;49.038;10.608;2023-07-29T14:59:54;2.38;;;1.35;;
21430;SDS011;10876;49.038;10.608;2023-07-29T15:03:19;1.58;;;1.40;;
21430;SDS011;10876;49.038;10.608;2023-07-29T15:06:44;1.38;;;1.10;;
21430;SDS011;10876;49.038;10.608;2023-07-29T15:10:13;1.45;;;1.30;;
21430;SDS011;10876;49.038;10.608;2023-07-29T15:13:39;1.15;;;1.05;;
21430;SDS011;10876;49.038;10.608;2023-07-29T15:17:04;2.47;;;1.40;;
21430;SDS011;10876;49.038;10.608;2023-07-29T15:20:29;2.53;;;1.10;;
21430;SDS011;10876;49.038;10.608;2023-07-29T15:23:55;4.15;;;1.13;;
21430;SDS011;10876;49.038;10.608;2023-07-29T15:27:21;1.40;;;1.10;;
21430;SDS011;10876;49.038;10.608;2023-07-29T15:30:47;1.15;;;1.05;;
21430;SDS011;10876;49.038;10.608;2023-07-29T15:34:12;1.30;;;1.20;;
21430;SDS011;10876;49.038;10.608;2023-07-29T15:37:38;4.15;;;2.30;;
21430;SDS011;10876;49.038;10.608;2023-07-29T15:41:03;1.88;;;1.52;;
21430;SDS011;10876;49.038;10.608;2023-07-29T15:44:30;1.30;;;1.20;;
21430;SDS011;10876;49.038;10.608;2023-07-29T15:47:56;1.50;;;1.23;;
21430;SDS011;10876;49.038;10.608;2023-07-29T15:51:24;1.30;;;1.17;;
21430;SDS011;10876;49.038;10.608;2023-07-29T15:54:52;1.65;;;1.30;;
21430;SDS011;10876;49.038;10.608;2023-07-29T15:58:17;3.05;;;1.30;;
21430;SDS011;10876;49.038;10.608;2023-07-29T16:01:44;2.20;;;1.38;;
21430;SDS011;10876;49.038;10.608;2023-07-29T16:05:09;1.73;;;1.40;;
21430;SDS011;10876;49.038;10.608;2023-07-29T16:08:34;1.73;;;1.50;;
21430;SDS011;10876;49.038;10.608;2023-07-29T16:11:59;1.35;;;1.20;;
21430;SDS011;10876;49.038;10.608;2023-07-29T16:15:27;1.73;;;1.20;;
21430;SDS011;10876;49.038;10.608;2023-07-29T16:18:55;1.58;;;1.40;;
21430;SDS011;10876;49.038;10.608;2023-07-29T16:22:23;1.48;;;1.33;;
21430;SDS011;10876;49.038;10.608;2023-07-29T16:25:48;1.23;;;1.13;;
21430;SDS011;10876;49.038;10.608;2023-07-29T16:29:13;2.10;;;1.33;;
21430;SDS011;10876;49.038;10.608;2023-07-29T16:32:38;1.60;;;1.33;;
21430;SDS011;10876;49.038;10.608;2023-07-29T16:36:05;1.58;;;1.30;;
21430;SDS011;10876;49.038;10.608;2023-07-29T16:39:31;1.63;;;1.30;;
21430;SDS011;10876;49.038;10.608;2023-07-29T16:42:56;1.90;;;1.50;;
21430;SDS011;10876;49.038;10.608;2023-07-29T16:46:21;2.13;;;1.33;;
21430;SDS011;10876;49.038;10.608;2023-07-29T16:49:48;2.13;;;1.48;;
21430;SDS011;10876;49.038;10.608;2023-07-29T16:53:15;2.25;;;1.13;;
21430;SDS011;10876;49.038;10.608;2023-07-29T16:56:48;3.20;;;1.30;;
21430;SDS011;10876;49.038;10.608;2023-07-29T17:00:22;1.80;;;1.30;;
21430;SDS011;10876;49.038;10.608;2023-07-29T17:03:48;1.20;;;1.10;;
21430;SDS011;10876;49.038;10.608;2023-07-29T17:07:13;1.90;;;1.50;;
21430;SDS011;10876;49.038;10.608;2023-07-29T17:10:39;1.75;;;1.50;;
21430;SDS011;10876;49.038;10.608;2023-07-29T17:14:05;2.72;;;1.50;;
21430;SDS011;10876;49.038;10.608;2023-07-29T17:17:33;1.80;;;1.42;;
21430;SDS011;10876;49.038;10.608;2023-07-29T17:21:00;2.28;;;1.85;;
21430;SDS011;10876;49.038;10.608;2023-07-29T17:24:25;3.78;;;1.67;;
21430;SDS011;10876;49.038;10.608;2023-07-29T17:27:52;1.85;;;1.65;;
21430;SDS011;10876;49.038;10.608;2023-07-29T17:31:17;2.85;;;1.58;;
21430;SDS011;10876;49.038;10.608;2023-07-29T17:34:43;1.77;;;1.50;;
21430;SDS011;10876;49.038;10.608;2023-07-29T17:38:08;2.53;;;1.63;;
21430;SDS011;10876;49.038;10.608;2023-07-29T17:41:33;2.03;;;1.40;;
21430;SDS011;10876;49.038;10.608;2023-07-29T17:45:00;3.05;;;1.48;;
21430;SDS011;10876;49.038;10.608;2023-07-29T17:48:25;3.50;;;1.75;;
21430;SDS011;10876;49.038;10.608;2023-07-29T17:51:51;1.50;;;1.30;;
21430;SDS011;10876;49.038;10.608;2023-07-29T17:55:16;3.08;;;1.30;;
21430;SDS011;10876;49.038;10.608;2023-07-29T17:58:41;1.58;;;1.33;;
21430;SDS011;10876;49.038;10.608;2023-07-29T18:02:08;2.20;;;1.70;;
21430;SDS011;10876;49.038;10.608;2023-07-29T18:05:34;3.13;;;1.70;;
21430;SDS011;10876;49.038;10.608;2023-07-29T18:08:59;2.22;;;1.70;;
21430;SDS011;10876;49.038;10.608;2023-07-29T18:12:24;2.22;;;1.75;;
21430;SDS011;10876;49.038;10.608;2023-07-29T18:15:51;1.70;;;1.40;;
21430;SDS011;10876;49.038;10.608;2023-07-29T18:19:17;1.70;;;1.52;;
21430;SDS011;10876;49.038;10.608;2023-07-29T18:22:43;1.40;;;1.30;;
21430;SDS011;10876;49.038;10.608;2023-07-29T18:26:08;2.28;;;1.33;;
21430;SDS011;10876;49.038;10.608;2023-07-29T18:29:34;2.10;;;1.50;;
21430;SDS011;10876;49.038;10.608;2023-07-29T18:32:59;2.05;;;1.60;;
21430;SDS011;10876;49.038;10.608;2023-07-29T18:36:26;3.70;;;1.60;;
21430;SDS011;10876;49.038;10.608;2023-07-29T18:39:51;1.98;;;1.60;;
21430;SDS011;10876;49.038;10.608;2023-07-29T18:43:16;3.00;;;1.95;;
21430;SDS011;10876;49.038;10.608;2023-07-29T18:46:42;2.70;;;1.73;;
21430;SDS011;10876;49.038;10.608;2023-07-29T18:50:07;2.03;;;1.60;;
21430;SDS011;10876;49.038;10.608;2023-07-29T18:53:34;2.92;;;1.60;;
21430;SDS011;10876;49.038;10.608;2023-07-29T18:57:02;1.73;;;1.45;;
21430;SDS011;10876;49.038;10.608;2023-07-29T19:00:27;3.13;;;1.92;;
21430;SDS011;10876;49.038;10.608;2023-07-29T19:03:52;22.75;;;15.70;;
21430;SDS011;10876;49.038;10.608;2023-07-29T19:07:18;2.25;;;2.05;;
21430;SDS011;10876;49.038;10.608;2023-07-29T19:10:44;2.08;;;1.60;;
21430;SDS011;10876;49.038;10.608;2023-07-29T19:14:10;4.47;;;2.05;;
21430;SDS011;10876;49.038;10.608;2023-07-29T19:17:35;5.70;;;1.40;;
21430;SDS011;10876;49.038;10.608;2023-07-29T19:21:04;5.25;;;1.05;;
21430;SDS011;10876;49.038;10.608;2023-07-29T19:24:30;1.10;;;0.40;;
21430;SDS011;10876;49.038;10.608;2023-07-29T19:27:56;0.30;;;0.30;;
21430;SDS011;10876;49.038;10.608;2023-07-29T19:31:21;1.20;;;0.70;;
21430;SDS011;10876;49.038;10.608;2023-07-29T19:34:50;1.17;;;0.90;;
21430;SDS011;10876;49.038;10.608;2023-07-29T19:38:19;2.30;;;1.23;;
21430;SDS011;10876;49.038;10.608;2023-07-29T19:41:44;2.97;;;1.00;;
21430;SDS011;10876;49.038;10.608;2023-07-29T19:45:11;1.50;;;1.00;;
21430;SDS011;10876;49.038;10.608;2023-07-29T19:48:36;1.98;;;1.30;;
21430;SDS011;10876;49.038;10.608;2023-07-29T19:52:01;2.28;;;1.10;;
21430;SDS011;10876;49.038;10.608;2023-07-29T19:55:27;1.58;;;0.88;;
21430;SDS011;10876;49.038;10.608;2023-07-29T19:58:52;3.90;;;1.40;;
21430;SDS011;10876;49.038;10.608;2023-07-29T20:02:18;1.73;;;1.20;;
21430;SDS011;10876;49.038;10.608;2023-07-29T20:05:44;2.28;;;1.27;;
21430;SDS011;10876;49.038;10.608;2023-07-29T20:09:09;1.50;;;1.10;;
21430;SDS011;10876;49.038;10.608;2023-07-29T20:12:35;2.72;;;1.27;;
21430;SDS011;10876;49.038;10.608;2023-07-29T20:16:00;0.80;;;0.80;;
21430;SDS011;10876;49.038;10.608;2023-07-29T20:19:26;2.53;;;1.20;;
21430;SDS011;10876;49.038;10.608;2023-07-29T20:22:52;2.15;;;1.17;;
21430;SDS011;10876;49.038;10.608;2023-07-29T20:26:19;1.88;;;1.20;;
21430;SDS011;10876;49.038;10.608;2023-07-29T20:29:44;1.75;;;1.30;;
21430;SDS011;10876;49.038;10.608;2023-07-29T20:33:09;2.45;;;1.35;;
21430;SDS011;10876;49.038;10.608;2023-07-29T20:36:36;3.88;;;1.10;;
21430;SDS011;10876;49.038;10.608;2023-07-29T20:40:01;3.03;;;1.50;;
21430;SDS011;10876;49.038;10.608;2023-07-29T20:43:26;2.10;;;1.40;;
21430;SDS011;10876;49.038;10.608;2023-07-29T20:46:53;3.55;;;1.50;;
21430;SDS011;10876;49.038;10.608;2023-07-29T20:50:18;1.67;;;1.30;;
21430;SDS011;10876;49.038;10.608;2023-07-29T20:53:45;2.53;;;1.30;;
21430;SDS011;10876;49.038;10.608;2023-07-29T20:57:10;1.40;;;1.02;;